createdAt,value
2022-08-08T00:02:04.069Z,99.47
2022-08-08T00:04:17.127Z,99.25
2022-08-08T00:06:50.092Z,99.05
2022-08-08T00:09:16.661Z,99.12
2022-08-08T00:11:47.167Z,99.31
2022-08-08T00:14:15.235Z,99.56
2022-08-08T00:16:46.416Z,100.00
2022-08-08T00:19:15.526Z,100.00
2022-08-08T00:21:27.082Z,99.74
2022-08-08T00:24:03.150Z,99.51
2022-08-08T00:26:49.632Z,99.96
2022-08-08T00:28:59.507Z,100.00
2022-08-08T00:32:21.370Z,100.00
2022-08-08T00:34:26.961Z,100.00
2022-08-08T00:36:35.103Z,100.00
2022-08-08T00:38:59.568Z,100.00
2022-08-08T00:42:08.010Z,100.00
2022-08-08T00:44:32.886Z,100.00
2022-08-08T00:47:23.166Z,100.00
2022-08-08T00:50:09.155Z,100.00
2022-08-08T00:52:20.908Z,100.00
2022-08-08T00:54:28.997Z,100.00
2022-08-08T00:56:45.123Z,100.00
2022-08-08T00:59:12.081Z,100.00
2022-08-08T01:01:41.350Z,100.00
2022-08-08T01:04:29.602Z,100.00
2022-08-08T01:07:00.212Z,100.00
2022-08-08T01:09:36.200Z,100.00
2022-08-08T01:12:29.679Z,100.00
2022-08-08T01:15:03.272Z,100.00
2022-08-08T01:17:51.506Z,100.00
2022-08-08T01:20:14.767Z,100.00
2022-08-08T01:22:43.566Z,100.00
2022-08-08T01:25:14.221Z,100.00
2022-08-08T01:28:00.009Z,100.00
2022-08-08T01:30:31.544Z,100.00
2022-08-08T01:32:42.353Z,100.00
2022-08-08T01:35:11.327Z,100.00
2022-08-08T01:37:57.413Z,100.00
2022-08-08T01:40:19.974Z,100.00
2022-08-08T01:42:45.494Z,100.00
2022-08-08T01:45:15.223Z,100.00
2022-08-08T01:48:16.293Z,100.00
2022-08-08T01:50:45.340Z,100.00
2022-08-08T01:54:19.705Z,100.00
2022-08-08T01:56:28.986Z,100.00
2022-08-08T01:58:38.285Z,100.00
2022-08-08T02:01:09.033Z,100.00
2022-08-08T02:04:09.410Z,100.00
2022-08-08T02:06:43.785Z,100.00
2022-08-08T02:10:04.095Z,100.00
2022-08-08T02:12:18.380Z,100.00
2022-08-08T02:14:58.477Z,100.00
2022-08-08T02:17:43.137Z,100.00
2022-08-08T02:20:16.148Z,100.00
2022-08-08T02:23:16.312Z,100.00
2022-08-08T02:26:15.744Z,100.00
2022-08-08T02:28:26.192Z,100.00
2022-08-08T02:31:02.074Z,100.00
2022-08-08T02:34:00.522Z,100.00
2022-08-08T02:36:38.321Z,100.00
2022-08-08T02:38:56.159Z,100.00
2022-08-08T02:41:58.676Z,100.00
2022-08-08T02:44:51.362Z,100.00
2022-08-08T02:47:21.668Z,100.00
2022-08-08T02:50:18.019Z,100.00
2022-08-08T02:53:08.716Z,100.00
2022-08-08T02:55:21.483Z,100.00
2022-08-08T02:57:44.684Z,100.00
2022-08-08T03:00:26.687Z,100.00
2022-08-08T03:02:43.207Z,100.00
2022-08-08T03:05:44.869Z,100.00
2022-08-08T03:08:19.923Z,100.00
2022-08-08T03:10:44.342Z,100.00
2022-08-08T03:13:01.644Z,100.00
2022-08-08T03:15:57.290Z,100.00
2022-08-08T03:18:31.647Z,100.00
2022-08-08T03:20:53.669Z,100.00
2022-08-08T03:22:56.129Z,100.00
2022-08-08T03:25:18.079Z,100.00
2022-08-08T03:27:26.922Z,100.00
2022-08-08T03:29:56.429Z,100.00
2022-08-08T03:32:19.529Z,100.00
2022-08-08T03:34:21.806Z,100.00
2022-08-08T03:36:31.531Z,100.00
2022-08-08T03:38:57.366Z,100.00
2022-08-08T03:40:59.661Z,100.00
2022-08-08T03:43:31.474Z,100.00
2022-08-08T03:46:12.684Z,100.00
2022-08-08T03:48:21.390Z,100.00
2022-08-08T03:50:48.559Z,100.00
2022-08-08T03:52:57.356Z,100.00
2022-08-08T03:55:19.811Z,100.00
2022-08-08T03:58:33.404Z,100.00
2022-08-08T04:00:07.783Z,99.66
2022-08-08T04:02:36.572Z,99.67
2022-08-08T04:04:52.971Z,99.08
2022-08-08T04:07:02.401Z,98.94
2022-08-08T04:09:11.172Z,98.05
2022-08-08T04:11:17.744Z,96.75
2022-08-08T04:13:32.774Z,95.18
2022-08-08T04:15:54.580Z,94.44
2022-08-08T04:18:17.134Z,95.14
2022-08-08T04:20:20.504Z,95.15
2022-08-08T04:22:32.487Z,93.87
2022-08-08T04:24:50.027Z,91.16
2022-08-08T04:26:57.219Z,90.16
2022-08-08T04:29:16.871Z,89.99
2022-08-08T04:31:57.382Z,88.73
2022-08-08T04:33:53.789Z,86.86
2022-08-08T04:35:57.409Z,84.40
2022-08-08T04:37:59.321Z,83.45
2022-08-08T04:40:12.440Z,82.82
2022-08-08T04:42:19.851Z,81.99
2022-08-08T04:44:51.098Z,83.34
2022-08-08T04:46:55.255Z,83.58
2022-08-08T04:49:12.215Z,83.50
2022-08-08T04:51:28.079Z,84.98
2022-08-08T04:54:26.783Z,85.15
2022-08-08T04:56:17.208Z,86.11
2022-08-08T04:58:25.742Z,86.17
2022-08-08T05:00:56.668Z,85.99
2022-08-08T05:03:05.753Z,83.00
2022-08-08T05:05:20.275Z,83.38
2022-08-08T05:07:42.804Z,83.25
2022-08-08T05:09:45.938Z,80.84
2022-08-08T05:11:56.837Z,78.86
2022-08-08T05:14:01.358Z,78.27
2022-08-08T05:16:55.153Z,75.40
2022-08-08T05:18:50.529Z,74.46
2022-08-08T05:21:10.053Z,72.63
2022-08-08T05:23:22.238Z,73.03
2022-08-08T05:25:41.297Z,74.67
2022-08-08T05:27:54.993Z,71.95
2022-08-08T05:30:12.633Z,73.46
2022-08-08T05:32:18.831Z,74.85
2022-08-08T05:34:49.319Z,74.07
2022-08-08T05:36:56.462Z,73.49
2022-08-08T05:39:21.424Z,75.03
2022-08-08T05:41:54.666Z,75.08
2022-08-08T05:44:10.842Z,76.43
2022-08-08T05:46:13.545Z,77.72
2022-08-08T05:48:18.101Z,75.96
2022-08-08T05:50:33.625Z,74.68
2022-08-08T05:52:39.685Z,72.54
2022-08-08T05:54:50.916Z,69.04
2022-08-08T05:56:59.226Z,68.48
2022-08-08T06:00:00.906Z,67.35
2022-08-08T06:02:04.294Z,69.47
2022-08-08T06:04:26.283Z,68.48
2022-08-08T06:06:32.716Z,68.13
2022-08-08T06:08:54.866Z,67.17
2022-08-08T06:10:59.807Z,65.42
2022-08-08T06:13:03.778Z,65.69
2022-08-08T06:15:17.118Z,67.83
2022-08-08T06:17:50.987Z,63.63
2022-08-08T06:20:06.204Z,59.32
2022-08-08T06:22:35.639Z,54.63
2022-08-08T06:24:40.207Z,53.17
2022-08-08T06:27:26.818Z,56.48
2022-08-08T06:29:56.923Z,58.85
2022-08-08T06:32:09.786Z,55.52
2022-08-08T06:34:25.971Z,54.75
2022-08-08T06:36:53.582Z,54.83
2022-08-08T06:39:15.150Z,53.68
2022-08-08T06:41:19.995Z,50.92
2022-08-08T06:43:34.262Z,52.29
2022-08-08T06:45:43.798Z,50.81
2022-08-08T06:48:01.259Z,51.60
2022-08-08T06:50:06.295Z,50.19
2022-08-08T06:52:10.893Z,52.24
2022-08-08T06:54:17.936Z,52.61
2022-08-08T06:56:24.582Z,50.13
2022-08-08T06:58:30.456Z,48.38
2022-08-08T07:00:40.894Z,48.25
2022-08-08T07:02:51.951Z,48.48
2022-08-08T07:05:12.018Z,48.04
2022-08-08T07:07:46.830Z,47.87
2022-08-08T07:10:10.134Z,46.86
2022-08-08T07:12:30.680Z,49.08
2022-08-08T07:15:02.421Z,46.93
2022-08-08T07:17:24.792Z,46.63
2022-08-08T07:19:53.683Z,47.94
2022-08-08T07:22:49.234Z,48.39
2022-08-08T07:25:06.550Z,48.26
2022-08-08T07:27:16.980Z,47.21
2022-08-08T07:30:00.853Z,47.13
2022-08-08T07:31:48.343Z,46.70
2022-08-08T07:33:59.300Z,48.91
2022-08-08T07:36:48.281Z,49.22
2022-08-08T07:38:53.505Z,47.50
2022-08-08T07:41:04.147Z,49.03
2022-08-08T07:43:17.158Z,47.46
2022-08-08T07:46:05.218Z,48.66
2022-08-08T07:48:14.049Z,48.01
2022-08-08T07:50:16.282Z,48.00
2022-08-08T07:52:35.139Z,48.43
2022-08-08T07:55:03.948Z,46.32
2022-08-08T07:57:12.243Z,44.55
2022-08-08T07:59:37.712Z,46.37
2022-08-08T08:02:36.098Z,48.20
2022-08-08T08:04:41.305Z,44.04
2022-08-08T08:06:50.661Z,44.74
2022-08-08T08:09:02.756Z,44.49
2022-08-08T08:11:23.642Z,43.68
2022-08-08T08:14:07.729Z,45.23
2022-08-08T08:16:23.411Z,46.15
2022-08-08T08:18:56.172Z,43.33
2022-08-08T08:21:00.349Z,44.12
2022-08-08T08:23:12.299Z,48.35
2022-08-08T08:25:42.281Z,45.76
2022-08-08T08:28:10.961Z,44.30
2022-08-08T08:30:29.528Z,44.34
2022-08-08T08:32:36.732Z,46.47
2022-08-08T08:34:53.647Z,44.90
2022-08-08T08:37:15.555Z,48.19
2022-08-08T08:40:00.173Z,49.34
2022-08-08T08:42:02.104Z,46.78
2022-08-08T08:44:14.339Z,48.61
2022-08-08T08:46:19.113Z,47.34
2022-08-08T08:48:38.393Z,46.74
2022-08-08T08:51:01.878Z,46.43
2022-08-08T08:53:27.807Z,45.88
2022-08-08T08:55:49.436Z,44.97
2022-08-08T08:57:56.063Z,44.79
2022-08-08T09:00:08.835Z,45.44
2022-08-08T09:02:26.665Z,46.71
2022-08-08T09:04:38.697Z,47.61
2022-08-08T09:06:50.382Z,48.16
2022-08-08T09:09:25.866Z,47.04
2022-08-08T09:11:47.256Z,44.87
2022-08-08T09:14:10.841Z,44.93
2022-08-08T09:16:17.387Z,45.71
2022-08-08T09:18:21.296Z,46.13
2022-08-08T09:22:02.628Z,45.45
2022-08-08T09:22:58.877Z,44.02
2022-08-08T09:25:06.049Z,47.19
2022-08-08T09:27:20.002Z,42.47
2022-08-08T09:29:25.242Z,42.53
2022-08-08T09:31:56.862Z,42.71
2022-08-08T09:34:32.693Z,43.97
2022-08-08T09:36:51.697Z,45.97
2022-08-08T09:39:19.177Z,47.70
2022-08-08T09:42:14.077Z,47.38
2022-08-08T09:44:19.071Z,45.91
2022-08-08T09:46:39.141Z,45.62
2022-08-08T09:49:18.201Z,44.82
2022-08-08T09:51:27.435Z,42.32
2022-08-08T09:54:01.250Z,42.85
2022-08-08T09:56:21.819Z,42.09
2022-08-08T09:58:40.316Z,41.84
2022-08-08T10:00:53.130Z,43.68
2022-08-08T10:03:04.385Z,45.03
2022-08-08T10:05:23.037Z,47.25
2022-08-08T10:07:35.972Z,46.85
2022-08-08T10:10:01.712Z,47.27
2022-08-08T10:12:26.039Z,47.73
2022-08-08T10:14:41.460Z,49.95
2022-08-08T10:16:46.823Z,45.11
2022-08-08T10:19:11.785Z,44.08
2022-08-08T10:21:24.999Z,45.51
2022-08-08T10:24:02.389Z,46.91
2022-08-08T10:26:30.738Z,41.02
2022-08-08T10:28:56.948Z,42.03
2022-08-08T10:31:46.723Z,43.78
2022-08-08T10:34:18.624Z,43.20
2022-08-08T10:36:25.309Z,40.83
2022-08-08T10:38:42.038Z,43.37
2022-08-08T10:41:15.668Z,41.94
2022-08-08T10:43:20.256Z,40.45
2022-08-08T10:45:27.353Z,40.77
2022-08-08T10:47:44.098Z,45.12
2022-08-08T10:50:01.580Z,42.42
2022-08-08T10:52:05.739Z,41.27
2022-08-08T10:54:36.460Z,43.00
2022-08-08T10:56:58.245Z,39.04
2022-08-08T10:59:09.847Z,42.17
2022-08-08T11:01:12.788Z,40.81
2022-08-08T11:03:19.145Z,41.34
2022-08-08T11:06:00.862Z,40.21
2022-08-08T11:08:53.526Z,40.44
2022-08-08T11:11:32.691Z,42.84
2022-08-08T11:14:02.986Z,42.31
2022-08-08T11:16:32.571Z,41.03
2022-08-08T11:19:06.543Z,42.57
2022-08-08T11:21:41.375Z,41.74
2022-08-08T11:23:43.981Z,40.86
2022-08-08T11:26:07.913Z,40.45
2022-08-08T11:28:13.892Z,40.88
2022-08-08T11:30:31.746Z,42.99
2022-08-08T11:33:12.278Z,42.67
2022-08-08T11:35:27.868Z,43.93
2022-08-08T11:38:36.754Z,42.44
2022-08-08T11:40:06.922Z,43.46
2022-08-08T11:42:10.001Z,44.41
2022-08-08T11:44:29.128Z,45.86
2022-08-08T11:46:43.436Z,44.11
2022-08-08T11:48:48.007Z,42.36
2022-08-08T11:51:30.718Z,44.01
2022-08-08T11:53:43.151Z,42.32
2022-08-08T11:55:56.372Z,43.33
2022-08-08T11:58:17.554Z,43.63
2022-08-08T12:00:28.931Z,42.27
2022-08-08T12:02:54.958Z,42.40
2022-08-08T12:05:02.239Z,40.19
2022-08-08T12:07:16.694Z,41.19
2022-08-08T12:09:29.511Z,39.31
2022-08-08T12:12:28.626Z,40.43
2022-08-08T12:14:32.841Z,39.42
2022-08-08T12:16:52.602Z,38.77
2022-08-08T12:18:57.300Z,40.00
2022-08-08T12:20:59.791Z,38.62
2022-08-08T12:23:04.238Z,38.04
2022-08-08T12:25:30.963Z,37.54
2022-08-08T12:27:45.158Z,37.72
2022-08-08T12:30:02.361Z,40.18
2022-08-08T12:32:22.400Z,37.71
2022-08-08T12:34:38.805Z,39.83
2022-08-08T12:36:49.161Z,38.48
2022-08-08T12:38:55.197Z,40.65
2022-08-08T12:41:04.385Z,41.49
2022-08-08T12:43:46.443Z,41.51
2022-08-08T12:46:02.809Z,41.94
2022-08-08T12:51:21.803Z,42.67
2022-08-08T12:53:38.169Z,42.35
2022-08-08T12:56:17.658Z,43.69
2022-08-08T12:58:22.005Z,44.07
2022-08-08T13:00:33.867Z,42.80
2022-08-08T13:02:51.720Z,43.48
2022-08-08T13:04:59.649Z,44.44
2022-08-08T13:07:03.972Z,43.27
2022-08-08T13:09:17.627Z,43.48
2022-08-08T13:12:24.414Z,44.15
2022-08-08T13:14:15.570Z,43.04
2022-08-08T13:16:25.240Z,42.79
2022-08-08T13:18:55.792Z,44.74
2022-08-08T13:21:00.282Z,40.81
2022-08-08T13:23:36.523Z,41.81
2022-08-08T13:25:50.272Z,39.53
2022-08-08T13:28:32.323Z,39.38
2022-08-08T13:30:46.459Z,39.64
2022-08-08T13:33:18.383Z,38.72
2022-08-08T13:35:29.461Z,39.08
2022-08-08T13:38:05.711Z,39.29
2022-08-08T13:40:07.357Z,40.22
2022-08-08T13:42:21.627Z,39.12
2022-08-08T13:44:27.741Z,39.86
2022-08-08T13:46:32.789Z,39.06
2022-08-08T13:49:11.453Z,39.56
2022-08-08T13:51:25.037Z,39.04
2022-08-08T13:54:18.289Z,38.99
2022-08-08T13:56:59.990Z,38.78
2022-08-08T13:59:12.456Z,41.45
2022-08-08T14:01:18.666Z,40.62
2022-08-08T14:03:53.033Z,41.81
2022-08-08T14:06:32.157Z,41.90
2022-08-08T14:08:47.851Z,45.72
2022-08-08T14:10:51.748Z,43.76
2022-08-08T14:12:56.500Z,44.05
2022-08-08T14:15:31.642Z,43.63
2022-08-08T14:17:57.863Z,44.71
2022-08-08T14:20:56.631Z,45.17
2022-08-08T14:22:42.946Z,46.63
2022-08-08T14:24:51.431Z,48.46
2022-08-08T14:27:29.217Z,48.32
2022-08-08T14:29:31.168Z,48.91
2022-08-08T14:32:10.859Z,49.01
2022-08-08T14:34:27.835Z,50.01
2022-08-08T14:36:53.681Z,47.36
2022-08-08T14:39:01.171Z,49.13
2022-08-08T14:41:45.327Z,49.41
2022-08-08T14:44:10.498Z,48.37
2022-08-08T14:46:32.807Z,53.86
2022-08-08T14:48:57.030Z,55.83
2022-08-08T14:51:47.285Z,57.84
2022-08-08T14:53:57.466Z,50.88
2022-08-08T14:56:02.118Z,46.92
2022-08-08T14:58:11.654Z,43.77
2022-08-08T15:00:17.873Z,43.82
2022-08-08T15:02:36.823Z,40.08
2022-08-08T15:05:10.773Z,40.81
2022-08-08T15:07:19.015Z,41.15
2022-08-08T15:09:27.113Z,40.18
2022-08-08T15:11:43.294Z,40.80
2022-08-08T15:14:13.666Z,40.83
2022-08-08T15:16:17.249Z,40.68
2022-08-08T15:18:29.902Z,39.23
2022-08-08T15:20:32.285Z,40.70
2022-08-08T15:22:35.755Z,41.40
2022-08-08T15:24:41.915Z,41.25
2022-08-08T15:26:55.612Z,42.01
2022-08-08T15:29:06.775Z,42.85
2022-08-08T15:31:21.738Z,41.46
2022-08-08T15:33:58.451Z,44.00
2022-08-08T15:36:03.769Z,42.52
2022-08-08T15:38:09.868Z,41.74
2022-08-08T15:40:18.217Z,40.59
2022-08-08T15:42:31.697Z,41.15
2022-08-08T15:44:38.762Z,41.67
2022-08-08T15:46:50.557Z,41.22
2022-08-08T15:49:01.834Z,42.22
2022-08-08T15:51:11.546Z,41.69
2022-08-08T15:53:19.693Z,41.99
2022-08-08T15:55:28.533Z,42.73
2022-08-08T15:57:35.223Z,40.42
2022-08-08T16:00:06.657Z,40.85
2022-08-08T16:02:02.210Z,42.56
2022-08-08T16:04:05.829Z,43.28
2022-08-08T16:06:28.244Z,43.33
2022-08-08T16:08:33.980Z,44.02
2022-08-08T16:13:09.904Z,42.86
2022-08-08T16:13:27.732Z,42.32
2022-08-08T16:15:58.897Z,42.49
2022-08-08T16:18:11.750Z,42.79
2022-08-08T16:20:14.503Z,43.84
2022-08-08T16:22:42.492Z,42.91
2022-08-08T16:25:05.812Z,43.04
2022-08-08T16:27:18.005Z,45.15
2022-08-08T16:29:23.815Z,43.62
2022-08-08T16:31:50.242Z,42.60
2022-08-08T16:33:59.399Z,42.47
2022-08-08T16:36:33.130Z,42.80
2022-08-08T16:38:47.250Z,42.18
2022-08-08T16:40:49.798Z,41.73
2022-08-08T16:42:57.824Z,41.10
2022-08-08T16:45:11.473Z,42.06
2022-08-08T16:47:42.131Z,41.89
2022-08-08T16:50:02.727Z,42.74
2022-08-08T16:55:06.677Z,43.97
2022-08-08T16:55:53.555Z,44.10
2022-08-08T16:58:15.253Z,42.64
2022-08-08T17:00:08.589Z,43.13
2022-08-08T17:02:38.601Z,44.07
2022-08-08T17:04:42.559Z,42.73
2022-08-08T17:07:03.664Z,42.90
2022-08-08T17:09:15.230Z,43.46
2022-08-08T17:11:22.579Z,44.07
2022-08-08T17:14:00.944Z,44.07
2022-08-08T17:16:04.232Z,44.93
2022-08-08T17:18:15.888Z,46.14
2022-08-08T17:20:18.371Z,47.51
2022-08-08T17:23:17.654Z,47.67
2022-08-08T17:25:13.239Z,48.46
2022-08-08T17:27:18.089Z,48.37
2022-08-08T17:29:24.913Z,49.08
2022-08-08T17:31:44.487Z,49.27
2022-08-08T17:34:49.205Z,50.08
2022-08-08T17:36:35.915Z,50.31
2022-08-08T17:39:05.012Z,49.88
2022-08-08T17:41:38.948Z,49.86
2022-08-08T17:44:00.890Z,49.91
2022-08-08T17:46:43.583Z,49.89
2022-08-08T17:49:08.987Z,50.36
2022-08-08T17:51:11.861Z,51.15
2022-08-08T17:53:31.171Z,50.98
2022-08-08T17:56:06.232Z,52.09
2022-08-08T17:58:14.262Z,52.17
2022-08-08T18:00:19.688Z,51.90
2022-08-08T18:02:29.239Z,52.94
2022-08-08T18:04:42.570Z,53.18
2022-08-08T18:06:55.095Z,53.63
2022-08-08T18:09:02.305Z,54.89
2022-08-08T18:11:15.153Z,55.19
2022-08-08T18:13:19.939Z,55.35
2022-08-08T18:15:31.461Z,55.79
2022-08-08T18:18:08.829Z,56.06
2022-08-08T18:20:43.316Z,57.46
2022-08-08T18:22:50.279Z,56.31
2022-08-08T18:24:53.918Z,56.59
2022-08-08T18:27:17.060Z,56.85
2022-08-08T18:29:34.039Z,57.45
2022-08-08T18:31:39.197Z,58.44
2022-08-08T18:34:25.589Z,59.40
2022-08-08T18:36:36.169Z,60.57
2022-08-08T18:38:44.389Z,61.07
2022-08-08T18:41:05.949Z,61.23
2022-08-08T18:43:16.421Z,61.26
2022-08-08T18:46:08.551Z,61.96
2022-08-08T18:48:07.533Z,62.03
2022-08-08T18:50:17.237Z,61.87
2022-08-08T18:52:34.821Z,62.61
2022-08-08T18:54:40.324Z,62.90
2022-08-08T18:56:50.197Z,63.79
2022-08-08T18:59:00.207Z,64.33
2022-08-08T19:02:24.967Z,64.86
2022-08-08T19:04:09.986Z,65.40
2022-08-08T19:06:16.462Z,65.51
2022-08-08T19:08:29.112Z,66.35
2022-08-08T19:10:50.592Z,65.99
2022-08-08T19:12:58.215Z,65.29
2022-08-08T19:15:11.927Z,65.94
2022-08-08T19:17:28.962Z,66.47
2022-08-08T19:19:44.034Z,67.70
2022-08-08T19:22:06.215Z,66.60
2022-08-08T19:24:12.693Z,67.24
2022-08-08T19:26:50.892Z,65.32
2022-08-08T19:28:56.133Z,65.19
2022-08-08T19:31:19.269Z,64.90
2022-08-08T19:33:51.860Z,64.08
2022-08-08T19:36:17.214Z,63.81
2022-08-08T19:38:39.307Z,63.49
2022-08-08T19:40:43.233Z,63.25
2022-08-08T19:42:50.370Z,63.47
2022-08-08T19:45:59.565Z,64.30
2022-08-08T19:47:47.674Z,64.55
2022-08-08T19:50:05.100Z,64.92
2022-08-08T19:52:10.496Z,65.41
2022-08-08T19:54:17.623Z,65.50
2022-08-08T19:56:25.905Z,66.76
2022-08-08T19:58:51.626Z,68.60
2022-08-08T20:00:53.952Z,69.16
2022-08-08T20:02:56.073Z,70.19
2022-08-08T20:04:58.137Z,71.19
2022-08-08T20:07:22.509Z,71.79
2022-08-08T20:09:29.896Z,71.79
2022-08-08T20:11:36.752Z,71.20
2022-08-08T20:14:12.621Z,70.91
2022-08-08T20:16:15.532Z,70.10
2022-08-08T20:18:19.418Z,69.35
2022-08-08T20:20:26.434Z,68.23
2022-08-08T20:22:33.056Z,67.72
2022-08-08T20:24:43.031Z,67.94
2022-08-08T20:26:51.090Z,68.45
2022-08-08T20:28:58.246Z,68.80
2022-08-08T20:31:10.576Z,67.56
2022-08-08T20:35:18.356Z,68.55
2022-08-08T20:37:47.279Z,69.62
2022-08-08T20:40:09.898Z,68.87
2022-08-08T20:42:28.331Z,68.07
2022-08-08T20:44:32.391Z,71.69
2022-08-08T20:46:39.923Z,72.74
2022-08-08T20:48:58.458Z,75.66
2022-08-08T20:51:05.669Z,77.53
2022-08-08T20:53:58.041Z,76.87
2022-08-08T20:55:51.041Z,77.17
2022-08-08T20:57:53.599Z,77.80
2022-08-08T20:59:56.507Z,77.60
2022-08-08T21:02:09.084Z,76.62
2022-08-08T21:04:27.404Z,77.09
2022-08-08T21:06:52.898Z,76.81
2022-08-08T21:08:55.843Z,77.75
2022-08-08T21:11:01.138Z,76.25
2022-08-08T21:13:11.288Z,75.21
2022-08-08T21:15:16.426Z,76.72
2022-08-08T21:17:41.576Z,78.21
2022-08-08T21:19:47.363Z,78.36
2022-08-08T21:21:59.636Z,77.74
2022-08-08T21:24:18.135Z,78.73
2022-08-08T21:26:33.803Z,78.97
2022-08-08T21:28:47.157Z,79.16
2022-08-08T21:31:23.323Z,76.48
2022-08-08T21:33:30.400Z,77.93
2022-08-08T21:36:16.496Z,75.94
2022-08-08T21:38:03.980Z,73.48
2022-08-08T21:40:15.264Z,69.42
2022-08-08T21:42:45.074Z,68.12
2022-08-08T21:44:58.959Z,64.58
2022-08-08T21:48:04.626Z,64.26
2022-08-08T21:49:35.759Z,63.61
2022-08-08T21:54:18.739Z,62.91
2022-08-08T21:54:33.379Z,62.44
2022-08-08T21:56:43.348Z,61.71
2022-08-08T21:58:45.562Z,61.31
2022-08-08T22:01:27.692Z,61.42
2022-08-08T22:03:31.042Z,61.99
2022-08-08T22:05:44.871Z,61.47
2022-08-08T22:07:52.324Z,61.11
2022-08-08T22:10:09.243Z,61.82
2022-08-08T22:12:17.392Z,61.89
2022-08-08T22:14:19.446Z,62.30
2022-08-08T22:16:31.377Z,63.11
2022-08-08T22:18:35.407Z,63.86
2022-08-08T22:20:37.491Z,63.35
2022-08-08T22:22:44.884Z,62.21
2022-08-08T22:24:54.040Z,61.62
2022-08-08T22:27:02.671Z,61.54
2022-08-08T22:29:56.999Z,62.23
2022-08-08T22:31:35.207Z,62.00
2022-08-08T22:34:12.285Z,62.06
2022-08-08T22:36:12.951Z,61.27
2022-08-08T22:38:17.554Z,61.62
2022-08-08T22:40:19.844Z,61.62
2022-08-08T22:42:35.586Z,61.99
2022-08-08T22:44:39.720Z,62.61
2022-08-08T22:46:45.775Z,62.48
2022-08-08T22:48:54.572Z,62.80
2022-08-08T22:51:00.721Z,63.67
2022-08-08T22:54:31.522Z,63.56
2022-08-08T22:56:04.738Z,63.67
2022-08-08T22:58:38.050Z,63.65
2022-08-08T23:00:42.119Z,64.98
2022-08-08T23:02:57.571Z,66.36
2022-08-08T23:05:13.568Z,66.13
2022-08-08T23:09:21.097Z,67.53
2022-08-08T23:12:29.043Z,66.09
2022-08-08T23:14:13.604Z,65.36
2022-08-08T23:16:42.198Z,65.79
2022-08-08T23:18:47.271Z,65.38
2022-08-08T23:20:55.531Z,64.99
2022-08-08T23:23:01.174Z,66.38
2022-08-08T23:25:10.033Z,66.61
2022-08-08T23:27:17.325Z,65.36
2022-08-08T23:29:38.139Z,68.39
2022-08-08T23:31:55.575Z,65.70
2022-08-08T23:34:16.611Z,66.69
2022-08-08T23:36:30.267Z,65.50
2022-08-08T23:38:51.846Z,64.51
2022-08-08T23:41:01.746Z,64.22
2022-08-08T23:43:12.222Z,64.17
2022-08-08T23:45:16.302Z,64.32
2022-08-08T23:49:08.770Z,63.74
2022-08-08T23:50:05.456Z,63.99
2022-08-08T23:52:50.647Z,64.03
2022-08-08T23:55:07.596Z,63.68
2022-08-08T23:57:55.200Z,63.54
